createdAt,value
2023-05-21T00:00:42.725Z,100301.91
2023-05-21T00:05:47.370Z,100315.56
2023-05-21T00:10:48.911Z,100300.88
2023-05-21T00:15:50.355Z,100295.66
2023-05-21T00:20:52.028Z,100286.38
2023-05-21T00:25:53.482Z,100285.53
2023-05-21T00:30:54.963Z,100277.97
2023-05-21T00:35:57.275Z,100274.03
2023-05-21T00:41:04.870Z,100269.97
2023-05-21T00:46:11.895Z,100263.94
2023-05-21T00:51:14.147Z,100266.66
2023-05-21T00:56:15.570Z,100267.50
2023-05-21T01:01:18.260Z,100266.66
2023-05-21T01:06:20.748Z,100265.59
2023-05-21T01:11:23.834Z,100266.03
2023-05-21T01:16:25.291Z,100259.53
2023-05-21T01:21:28.357Z,100254.28
2023-05-21T01:26:30.300Z,100252.59
2023-05-21T01:31:37.578Z,100246.31
2023-05-21T01:36:42.580Z,100240.63
2023-05-21T01:41:45.011Z,100227.44
2023-05-21T01:46:46.544Z,100229.13
2023-05-21T01:51:48.262Z,100221.72
2023-05-21T01:56:50.331Z,100218.41
2023-05-21T02:01:51.840Z,100219.25
2023-05-21T02:06:54.764Z,100213.41
2023-05-21T02:11:56.511Z,100215.31
2023-05-21T02:16:58.047Z,100208.78
2023-05-21T02:21:59.460Z,100219.47
2023-05-21T02:27:00.872Z,100216.16
2023-05-21T02:32:02.590Z,100212.38
2023-05-21T02:37:04.031Z,100214.25
2023-05-21T02:42:05.503Z,100209.38
2023-05-21T02:47:08.330Z,100205.59
2023-05-21T02:52:09.784Z,100205.59
2023-05-21T02:57:11.278Z,100199.06
2023-05-21T03:02:12.796Z,100202.59
2023-05-21T03:07:15.011Z,100199.88
2023-05-21T03:12:16.440Z,100202.28
2023-05-21T03:17:17.965Z,100203.09
2023-05-21T03:22:19.921Z,100201.19
2023-05-21T03:27:21.448Z,100201.81
2023-05-21T03:32:22.983Z,100201.81
2023-05-21T03:37:24.508Z,100199.28
2023-05-21T03:42:26.026Z,100199.28
2023-05-21T03:47:27.454Z,100200.59
2023-05-21T03:52:28.909Z,100198.47
2023-05-21T03:57:30.348Z,100200.13
2023-05-21T04:02:32.180Z,100193.25
2023-05-21T04:07:33.632Z,100203.91
2023-05-21T04:12:35.194Z,100205.59
2023-05-21T04:17:36.671Z,100206.91
2023-05-21T04:22:38.115Z,100204.75
2023-05-21T04:27:39.579Z,100203.91
2023-05-21T04:32:41.085Z,100203.91
2023-05-21T04:37:42.665Z,100203.69
2023-05-21T04:42:46.470Z,100210.81
2023-05-21T04:47:47.994Z,100211.63
2023-05-21T04:52:49.472Z,100210.81
2023-05-21T04:57:51.046Z,100207.25
2023-05-21T05:02:52.547Z,100207.00
2023-05-21T05:07:54.018Z,100205.97
2023-05-21T05:12:55.453Z,100208.25
2023-05-21T05:17:56.943Z,100208.25
2023-05-21T05:22:58.434Z,100198.63
2023-05-21T05:27:59.863Z,100203.59
2023-05-21T05:33:01.488Z,100189.94
2023-05-21T05:38:02.943Z,100180.94
2023-05-21T05:43:04.433Z,100175.22
2023-05-21T05:48:06.271Z,100175.22
2023-05-21T05:53:08.194Z,100180.69
2023-05-21T05:58:09.613Z,100176.91
2023-05-21T06:03:12.112Z,100170.34
2023-05-21T06:08:13.654Z,100179.63
2023-05-21T06:13:15.071Z,100174.38
2023-05-21T06:18:16.502Z,100175.00
2023-05-21T06:23:17.970Z,100172.28
2023-05-21T06:28:19.402Z,100176.06
2023-05-21T06:33:21.429Z,100167.63
2023-05-21T06:38:22.962Z,100169.53
2023-05-21T06:43:24.555Z,100179.63
2023-05-21T06:48:26.224Z,100170.59
2023-05-21T06:53:27.737Z,100175.22
2023-05-21T06:58:31.213Z,100176.28
2023-05-21T07:03:32.772Z,100179.84
2023-05-21T07:08:34.319Z,100191.63
2023-05-21T07:13:36.195Z,100178.78
2023-05-21T07:18:37.670Z,100178.78
2023-05-21T07:23:39.096Z,100186.16
2023-05-21T07:28:40.521Z,100169.53
2023-05-21T07:33:41.979Z,100174.75
2023-05-21T07:38:44.076Z,100177.00
2023-05-21T07:43:45.548Z,100175.94
2023-05-21T07:48:48.229Z,100180.09
2023-05-21T07:53:49.677Z,100176.53
2023-05-21T07:58:51.123Z,100177.72
2023-05-21T08:03:52.828Z,100178.31
2023-05-21T08:08:54.354Z,100173.44
2023-05-21T08:13:56.334Z,100173.44
2023-05-21T08:18:57.812Z,100176.53
2023-05-21T08:24:00.250Z,100176.28
2023-05-21T08:29:02.190Z,100182.00
2023-05-21T08:34:03.628Z,100186.16
2023-05-21T08:39:05.082Z,100187.56
2023-05-21T08:44:11.919Z,100183.19
2023-05-21T08:49:15.799Z,100179.38
2023-05-21T08:54:17.232Z,100178.91
2023-05-21T08:59:18.649Z,100184.72
2023-05-21T09:04:21.663Z,100186.38
2023-05-21T09:09:33.932Z,100176.88
2023-05-21T09:14:35.494Z,100173.06
2023-05-21T09:19:37.080Z,100175.78
2023-05-21T09:24:38.553Z,100172.00
2023-05-21T09:29:42.009Z,100170.94
2023-05-21T09:34:43.466Z,100166.31
2023-05-21T09:39:44.904Z,100173.78
2023-05-21T09:44:47.178Z,100169.13
2023-05-21T09:49:49.135Z,100165.31
2023-05-21T09:54:50.614Z,100160.69
2023-05-21T09:59:52.080Z,100162.34
2023-05-21T10:04:56.198Z,100155.81
2023-05-21T10:09:57.776Z,100153.69
2023-05-21T10:15:03.858Z,100155.09
2023-05-21T10:20:07.096Z,100161.41
2023-05-21T10:25:08.788Z,100157.56
2023-05-21T10:30:10.599Z,100157.34
2023-05-21T10:35:12.048Z,100152.72
2023-05-21T10:40:13.635Z,100151.88
2023-05-21T10:45:32.549Z,100146.16
2023-05-21T10:50:39.831Z,100143.19
2023-05-21T10:55:47.735Z,100142.94
2023-05-21T11:00:49.216Z,100141.88
2023-05-21T11:05:57.151Z,100125.47
2023-05-21T11:10:58.946Z,100132.34
2023-05-21T11:16:01.308Z,100123.31
2023-05-21T11:21:10.074Z,100118.09
2023-05-21T11:26:11.509Z,100121.41
2023-05-21T11:31:29.621Z,100117.84
2023-05-21T11:36:31.922Z,100110.75
2023-05-21T11:41:50.062Z,100112.38
2023-05-21T11:46:51.541Z,100120.34
2023-05-21T11:51:53.030Z,100120.94
2023-05-21T11:56:54.679Z,100102.63
2023-05-21T12:01:56.226Z,100108.31
2023-05-21T12:07:00.446Z,100111.06
2023-05-21T12:12:02.093Z,100105.38
2023-05-21T12:17:04.562Z,100117.72
2023-05-21T12:22:06.649Z,100118.56
2023-05-21T12:27:12.808Z,100122.13
2023-05-21T12:32:15.380Z,100120.00
2023-05-21T12:37:23.055Z,100123.56
2023-05-21T12:42:30.341Z,100109.91
2023-05-21T12:47:32.784Z,100114.28
2023-05-21T12:52:34.213Z,100105.00
2023-05-21T12:57:37.082Z,100114.28
2023-05-21T13:02:39.361Z,100102.25
2023-05-21T13:07:40.941Z,100091.09
2023-05-21T13:12:44.217Z,100087.28
2023-05-21T13:17:47.292Z,100085.38
2023-05-21T13:22:51.394Z,100061.59
2023-05-21T13:27:52.920Z,100070.38
2023-05-21T13:32:54.511Z,100059.22
2023-05-21T13:37:56.134Z,100048.28
2023-05-21T13:42:57.660Z,100053.25
2023-05-21T13:47:59.142Z,100047.78
2023-05-21T13:53:00.686Z,100049.41
2023-05-21T13:58:02.116Z,100052.16
2023-05-21T14:03:06.366Z,100058.22
2023-05-21T14:08:08.051Z,100057.13
2023-05-21T14:13:19.079Z,100057.97
2023-05-21T14:18:21.576Z,100056.06
2023-05-21T14:23:22.985Z,100050.34
2023-05-21T14:28:24.412Z,100040.22
2023-05-21T14:33:25.851Z,100034.75
2023-05-21T14:38:27.910Z,100042.13
2023-05-21T14:43:29.329Z,100045.47
2023-05-21T14:48:30.757Z,100041.06
2023-05-21T14:53:32.249Z,100050.94
2023-05-21T14:58:33.919Z,100052.84
2023-05-21T15:03:35.460Z,100047.38
2023-05-21T15:08:36.995Z,100052.84
2023-05-21T15:13:38.575Z,100041.91
2023-05-21T15:18:40.014Z,100040.81
2023-05-21T15:23:41.719Z,100037.00
2023-05-21T15:28:43.789Z,100043.31
2023-05-21T15:33:45.235Z,100038.66
2023-05-21T15:38:46.696Z,100040.31
2023-05-21T15:43:48.112Z,100039.25
2023-05-21T15:48:49.535Z,100025.84
2023-05-21T15:53:51.058Z,100024.72
2023-05-21T15:58:52.476Z,100023.09
2023-05-21T16:03:54.537Z,100017.63
2023-05-21T16:08:55.974Z,100017.63
2023-05-21T16:13:57.503Z,100017.63
2023-05-21T16:18:58.976Z,100020.34
2023-05-21T16:24:00.512Z,100019.25
2023-05-21T16:29:02.388Z,100019.25
2023-05-21T16:34:04.053Z,100016.53
2023-05-21T16:39:05.576Z,100023.09
2023-05-21T16:44:07.068Z,100025.34
2023-05-21T16:49:08.508Z,100019.03
2023-05-21T16:54:09.973Z,100018.19
2023-05-21T16:59:11.395Z,100026.97
2023-05-21T17:04:12.836Z,100015.47
2023-05-21T17:09:14.289Z,100024.50
2023-05-21T17:14:30.236Z,100016.28
2023-05-21T17:19:35.164Z,100021.16
2023-05-21T17:24:36.696Z,100021.44
2023-05-21T17:29:38.136Z,100031.53
2023-05-21T17:34:39.575Z,100020.84
2023-05-21T17:39:41.120Z,100020.84
2023-05-21T17:44:42.572Z,100016.19
2023-05-21T17:49:43.996Z,100026.31
2023-05-21T17:54:45.421Z,100017.50
2023-05-21T17:59:46.837Z,100017.50
2023-05-21T18:04:48.272Z,100027.88
2023-05-21T18:09:49.788Z,100032.50
2023-05-21T18:14:51.231Z,100042.63
2023-05-21T18:19:52.678Z,100041.81
2023-05-21T18:24:54.102Z,100042.88
2023-05-21T18:29:55.597Z,100050.25
2023-05-21T18:34:58.380Z,100040.16
2023-05-21T18:39:59.930Z,100048.34
2023-05-21T18:45:06.688Z,100054.06
2023-05-21T18:50:12.702Z,100057.03
2023-05-21T18:55:14.278Z,100058.94
2023-05-21T19:00:15.891Z,100059.78
2023-05-21T19:05:17.590Z,100063.00
2023-05-21T19:10:19.598Z,100060.00
2023-05-21T19:15:21.116Z,100056.47
2023-05-21T19:20:23.831Z,100057.53
2023-05-21T19:25:25.410Z,100061.59
2023-05-21T19:30:26.879Z,100062.44
2023-05-21T19:35:28.495Z,100065.41
2023-05-21T19:40:30.266Z,100071.13
2023-05-21T19:45:31.729Z,100069.47
2023-05-21T19:50:33.189Z,100069.47
2023-05-21T19:55:36.787Z,100072.44
2023-05-21T20:00:39.128Z,100065.31
2023-05-21T20:05:40.551Z,100077.28
2023-05-21T20:10:42.306Z,100082.75
2023-05-21T20:15:43.809Z,100082.75
2023-05-21T20:20:46.520Z,100070.41
2023-05-21T20:25:47.965Z,100073.38
2023-05-21T20:30:59.304Z,100070.88
2023-05-21T20:36:00.882Z,100078.25
2023-05-21T20:41:02.543Z,100076.63
2023-05-21T20:46:05.689Z,100079.56
2023-05-21T20:51:07.985Z,100081.16
2023-05-21T20:56:11.508Z,100077.59
2023-05-21T21:01:14.363Z,100079.47
2023-05-21T21:06:17.097Z,100086.50
2023-05-21T21:11:18.563Z,100089.50
2023-05-21T21:16:20.076Z,100093.53
2023-05-21T21:21:21.860Z,100085.09
2023-05-21T21:26:23.379Z,100078.28
2023-05-21T21:31:25.031Z,100084.16
2023-05-21T21:36:28.680Z,100087.06
2023-05-21T21:41:30.255Z,100086.78
2023-05-21T21:46:31.852Z,100090.84
2023-05-21T21:51:33.845Z,100087.53
2023-05-21T21:56:35.269Z,100089.66
2023-05-21T22:01:36.801Z,100089.06
2023-05-21T22:06:38.941Z,100087.19
2023-05-21T22:11:40.427Z,100081.84
2023-05-21T22:16:43.139Z,100085.16
2023-05-21T22:21:46.191Z,100081.63
2023-05-21T22:26:47.603Z,100085.41
2023-05-21T22:31:49.054Z,100083.50
2023-05-21T22:36:51.153Z,100084.22
2023-05-21T22:41:52.665Z,100077.69
2023-05-21T22:46:56.281Z,100077.91
2023-05-21T22:52:04.759Z,100075.44
2023-05-21T22:57:06.249Z,100079.59
2023-05-21T23:02:07.733Z,100074.59
2023-05-21T23:07:09.197Z,100072.34
2023-05-21T23:12:10.930Z,100076.03
2023-05-21T23:17:12.390Z,100069.25
2023-05-21T23:22:13.825Z,100069.97
2023-05-21T23:27:15.445Z,100072.81
2023-05-21T23:32:16.890Z,100071.75
2023-05-21T23:37:18.828Z,100071.16
2023-05-21T23:42:20.345Z,100069.00
2023-05-21T23:47:21.809Z,100063.56
2023-05-21T23:52:24.014Z,100062.97
2023-05-21T23:57:25.477Z,100067.59
